sensor_id;sensor_type;location;lat;lon;timestamp;pressure;altitude;pressure_sealevel;temperature;humidity
38718;BME280;24468;52.128;9.278;2023-04-26T00:01:40;100817.75;;;4.64;100.00
38718;BME280;24468;52.128;9.278;2023-04-26T00:04:06;100817.63;;;4.70;100.00
38718;BME280;24468;52.128;9.278;2023-04-26T00:06:33;100825.06;;;5.05;100.00
38718;BME280;24468;52.128;9.278;2023-04-26T00:08:59;100822.41;;;5.05;100.00
38718;BME280;24468;52.128;9.278;2023-04-26T00:11:24;100824.28;;;4.99;100.00
38718;BME280;24468;52.128;9.278;2023-04-26T00:13:50;100819.03;;;4.93;100.00
38718;BME280;24468;52.128;9.278;2023-04-26T00:16:16;100817.00;;;5.08;100.00
38718;BME280;24468;52.128;9.278;2023-04-26T00:18:43;100817.06;;;5.05;100.00
38718;BME280;24468;52.128;9.278;2023-04-26T00:21:11;100813.22;;;5.20;100.00
38718;BME280;24468;52.128;9.278;2023-04-26T00:23:36;100821.19;;;4.72;100.00
38718;BME280;24468;52.128;9.278;2023-04-26T00:26:02;100823.69;;;4.81;100.00
38718;BME280;24468;52.128;9.278;2023-04-26T00:28:28;100818.97;;;4.97;100.00
38718;BME280;24468;52.128;9.278;2023-04-26T00:30:54;100813.75;;;4.88;100.00
38718;BME280;24468;52.128;9.278;2023-04-26T00:33:23;100823.81;;;4.74;100.00
38718;BME280;24468;52.128;9.278;2023-04-26T00:35:48;100830.25;;;4.60;100.00
38718;BME280;24468;52.128;9.278;2023-04-26T00:38:14;100836.63;;;4.52;100.00
38718;BME280;24468;52.128;9.278;2023-04-26T00:40:40;100832.16;;;4.52;100.00
38718;BME280;24468;52.128;9.278;2023-04-26T00:43:05;100828.38;;;4.65;100.00
38718;BME280;24468;52.128;9.278;2023-04-26T00:45:31;100837.59;;;4.46;100.00
38718;BME280;24468;52.128;9.278;2023-04-26T00:47:58;100830.44;;;4.48;100.00
38718;BME280;24468;52.128;9.278;2023-04-26T00:50:25;100832.00;;;4.63;100.00
38718;BME280;24468;52.128;9.278;2023-04-26T00:52:51;100829.25;;;4.67;100.00
38718;BME280;24468;52.128;9.278;2023-04-26T00:55:17;100828.28;;;4.73;100.00
38718;BME280;24468;52.128;9.278;2023-04-26T00:57:45;100827.41;;;4.73;100.00
38718;BME280;24468;52.128;9.278;2023-04-26T01:00:11;100827.34;;;4.77;100.00
38718;BME280;24468;52.128;9.278;2023-04-26T01:02:37;100828.34;;;4.68;100.00
38718;BME280;24468;52.128;9.278;2023-04-26T01:05:03;100832.84;;;4.65;100.00
38718;BME280;24468;52.128;9.278;2023-04-26T01:07:30;100822.22;;;4.60;100.00
38718;BME280;24468;52.128;9.278;2023-04-26T01:09:57;100835.53;;;4.66;100.00
38718;BME280;24468;52.128;9.278;2023-04-26T01:12:24;100838.63;;;4.36;100.00
38718;BME280;24468;52.128;9.278;2023-04-26T01:14:50;100835.88;;;4.42;100.00
38718;BME280;24468;52.128;9.278;2023-04-26T01:17:17;100838.41;;;4.53;100.00
38718;BME280;24468;52.128;9.278;2023-04-26T01:19:49;100841.28;;;4.37;100.00
38718;BME280;24468;52.128;9.278;2023-04-26T01:22:15;100839.53;;;4.36;100.00
38718;BME280;24468;52.128;9.278;2023-04-26T01:24:49;100841.06;;;4.51;100.00
38718;BME280;24468;52.128;9.278;2023-04-26T01:27:16;100846.31;;;4.57;100.00
38718;BME280;24468;52.128;9.278;2023-04-26T01:29:42;100842.88;;;4.49;100.00
38718;BME280;24468;52.128;9.278;2023-04-26T01:32:08;100850.16;;;4.38;100.00
38718;BME280;24468;52.128;9.278;2023-04-26T01:34:33;100847.00;;;4.10;100.00
38718;BME280;24468;52.128;9.278;2023-04-26T01:37:02;100850.16;;;4.39;100.00
38718;BME280;24468;52.128;9.278;2023-04-26T01:39:28;100849.44;;;4.27;100.00
38718;BME280;24468;52.128;9.278;2023-04-26T01:41:56;100841.19;;;4.45;100.00
38718;BME280;24468;52.128;9.278;2023-04-26T01:44:22;100850.63;;;4.04;100.00
38718;BME280;24468;52.128;9.278;2023-04-26T01:46:48;100846.78;;;4.27;100.00
38718;BME280;24468;52.128;9.278;2023-04-26T01:49:13;100841.28;;;4.36;100.00
38718;BME280;24468;52.128;9.278;2023-04-26T01:51:39;100851.06;;;4.38;100.00
38718;BME280;24468;52.128;9.278;2023-04-26T01:54:05;100841.31;;;4.34;100.00
38718;BME280;24468;52.128;9.278;2023-04-26T01:56:30;100849.31;;;4.36;100.00
38718;BME280;24468;52.128;9.278;2023-04-26T01:58:56;100854.59;;;4.42;100.00
38718;BME280;24468;52.128;9.278;2023-04-26T02:01:23;100844.88;;;4.33;100.00
38718;BME280;24468;52.128;9.278;2023-04-26T02:03:49;100850.16;;;4.38;100.00
38718;BME280;24468;52.128;9.278;2023-04-26T02:06:15;100844.72;;;4.47;100.00
38718;BME280;24468;52.128;9.278;2023-04-26T02:08:41;100848.16;;;4.55;100.00
38718;BME280;24468;52.128;9.278;2023-04-26T02:11:06;100846.31;;;4.59;100.00
38718;BME280;24468;52.128;9.278;2023-04-26T02:13:32;100846.63;;;4.39;100.00
38718;BME280;24468;52.128;9.278;2023-04-26T02:15:57;100843.94;;;4.37;100.00
38718;BME280;24468;52.128;9.278;2023-04-26T02:18:24;100839.34;;;4.49;100.00
38718;BME280;24468;52.128;9.278;2023-04-26T02:20:49;100846.38;;;4.54;100.00
38718;BME280;24468;52.128;9.278;2023-04-26T02:23:15;100850.31;;;4.27;100.00
38718;BME280;24468;52.128;9.278;2023-04-26T02:25:44;100845.94;;;4.23;100.00
38718;BME280;24468;52.128;9.278;2023-04-26T02:28:10;100848.78;;;4.09;100.00
38718;BME280;24468;52.128;9.278;2023-04-26T02:30:36;100847.00;;;4.08;100.00
38718;BME280;24468;52.128;9.278;2023-04-26T02:33:01;100844.41;;;4.04;100.00
38718;BME280;24468;52.128;9.278;2023-04-26T02:35:27;100848.09;;;3.93;100.00
38718;BME280;24468;52.128;9.278;2023-04-26T02:37:52;100846.34;;;3.89;100.00
38718;BME280;24468;52.128;9.278;2023-04-26T02:40:18;100842.00;;;3.81;100.00
38718;BME280;24468;52.128;9.278;2023-04-26T02:42:44;100844.59;;;3.88;100.00
38718;BME280;24468;52.128;9.278;2023-04-26T02:45:10;100846.31;;;3.94;100.00
38718;BME280;24468;52.128;9.278;2023-04-26T02:47:35;100844.59;;;3.88;100.00
38718;BME280;24468;52.128;9.278;2023-04-26T02:50:06;100851.75;;;3.83;100.00
38718;BME280;24468;52.128;9.278;2023-04-26T02:52:32;100853.06;;;3.45;100.00
38718;BME280;24468;52.128;9.278;2023-04-26T02:54:58;100848.59;;;3.49;100.00
38718;BME280;24468;52.128;9.278;2023-04-26T02:57:25;100853.31;;;3.24;100.00
38718;BME280;24468;52.128;9.278;2023-04-26T02:59:51;100845.97;;;3.43;100.00
38718;BME280;24468;52.128;9.278;2023-04-26T03:02:16;100855.69;;;3.51;100.00
38718;BME280;24468;52.128;9.278;2023-04-26T03:04:42;100854.00;;;3.41;100.00
38718;BME280;24468;52.128;9.278;2023-04-26T03:07:07;100855.84;;;3.38;100.00
38718;BME280;24468;52.128;9.278;2023-04-26T03:09:33;100859.44;;;3.29;100.00
38718;BME280;24468;52.128;9.278;2023-04-26T03:11:59;100872.03;;;3.16;100.00
38718;BME280;24468;52.128;9.278;2023-04-26T03:14:25;100861.44;;;3.08;100.00
38718;BME280;24468;52.128;9.278;2023-04-26T03:16:51;100862.31;;;3.09;100.00
38718;BME280;24468;52.128;9.278;2023-04-26T03:19:17;100866.75;;;3.08;100.00
38718;BME280;24468;52.128;9.278;2023-04-26T03:21:43;100871.28;;;3.02;100.00
38718;BME280;24468;52.128;9.278;2023-04-26T03:24:08;100857.78;;;3.17;100.00
38718;BME280;24468;52.128;9.278;2023-04-26T03:26:34;100849.72;;;3.23;100.00
38718;BME280;24468;52.128;9.278;2023-04-26T03:28:59;100855.00;;;3.31;100.00
38718;BME280;24468;52.128;9.278;2023-04-26T03:31:26;100852.31;;;3.32;100.00
38718;BME280;24468;52.128;9.278;2023-04-26T03:33:51;100848.06;;;3.11;100.00
38718;BME280;24468;52.128;9.278;2023-04-26T03:36:17;100853.84;;;2.58;100.00
38718;BME280;24468;52.128;9.278;2023-04-26T03:38:42;100857.41;;;2.51;100.00
38718;BME280;24468;52.128;9.278;2023-04-26T03:41:08;100851.97;;;2.69;100.00
38718;BME280;24468;52.128;9.278;2023-04-26T03:43:33;100860.06;;;2.52;100.00
38718;BME280;24468;52.128;9.278;2023-04-26T03:45:59;100858.19;;;2.70;100.00
38718;BME280;24468;52.128;9.278;2023-04-26T03:48:25;100860.09;;;2.49;100.00
38718;BME280;24468;52.128;9.278;2023-04-26T03:50:52;100858.38;;;2.42;100.00
38718;BME280;24468;52.128;9.278;2023-04-26T03:53:17;100847.59;;;2.57;100.00
38718;BME280;24468;52.128;9.278;2023-04-26T03:55:43;100859.19;;;2.52;100.00
38718;BME280;24468;52.128;9.278;2023-04-26T03:58:09;100858.25;;;2.63;100.00
38718;BME280;24468;52.128;9.278;2023-04-26T04:00:37;100857.34;;;2.60;100.00
38718;BME280;24468;52.128;9.278;2023-04-26T04:03:05;100852.81;;;2.77;100.00
38718;BME280;24468;52.128;9.278;2023-04-26T04:05:31;100852.06;;;2.54;100.00
38718;BME280;24468;52.128;9.278;2023-04-26T04:07:57;100852.81;;;2.76;100.00
38718;BME280;24468;52.128;9.278;2023-04-26T04:10:22;100853.91;;;2.47;100.00
38718;BME280;24468;52.128;9.278;2023-04-26T04:12:49;100847.66;;;2.47;100.00
38718;BME280;24468;52.128;9.278;2023-04-26T04:15:16;100848.44;;;2.67;100.00
38718;BME280;24468;52.128;9.278;2023-04-26T04:17:41;100852.88;;;2.66;100.00
38718;BME280;24468;52.128;9.278;2023-04-26T04:20:07;100852.03;;;2.60;100.00
38718;BME280;24468;52.128;9.278;2023-04-26T04:22:33;100866.19;;;2.65;100.00
38718;BME280;24468;52.128;9.278;2023-04-26T04:24:59;100864.47;;;2.55;100.00
38718;BME280;24468;52.128;9.278;2023-04-26T04:27:27;100868.09;;;2.46;100.00
38718;BME280;24468;52.128;9.278;2023-04-26T04:29:53;100865.50;;;2.37;100.00
38718;BME280;24468;52.128;9.278;2023-04-26T04:32:20;100877.03;;;2.33;100.00
38718;BME280;24468;52.128;9.278;2023-04-26T04:34:47;100876.06;;;2.55;100.00
38718;BME280;24468;52.128;9.278;2023-04-26T04:37:13;100872.44;;;2.62;100.00
38718;BME280;24468;52.128;9.278;2023-04-26T04:39:38;100871.38;;;2.85;100.00
38718;BME280;24468;52.128;9.278;2023-04-26T04:42:04;100871.38;;;2.86;100.00
38718;BME280;24468;52.128;9.278;2023-04-26T04:44:30;100870.44;;;2.94;100.00
38718;BME280;24468;52.128;9.278;2023-04-26T04:46:55;100869.44;;;3.04;100.00
38718;BME280;24468;52.128;9.278;2023-04-26T04:49:21;100877.63;;;2.81;100.00
38718;BME280;24468;52.128;9.278;2023-04-26T04:51:49;100874.84;;;2.98;100.00
38718;BME280;24468;52.128;9.278;2023-04-26T04:54:16;100890.00;;;2.89;100.00
38718;BME280;24468;52.128;9.278;2023-04-26T04:56:43;100886.44;;;2.94;100.00
38718;BME280;24468;52.128;9.278;2023-04-26T04:59:10;100889.78;;;3.19;100.00
38718;BME280;24468;52.128;9.278;2023-04-26T05:01:36;100884.59;;;2.99;100.00
38718;BME280;24468;52.128;9.278;2023-04-26T05:04:03;100893.38;;;3.11;100.00
38718;BME280;24468;52.128;9.278;2023-04-26T05:06:29;100892.41;;;3.26;100.00
38718;BME280;24468;52.128;9.278;2023-04-26T05:08:57;100886.81;;;3.48;100.00
38718;BME280;24468;52.128;9.278;2023-04-26T05:11:22;100901.34;;;3.16;100.00
38718;BME280;24468;52.128;9.278;2023-04-26T05:13:48;100893.25;;;3.30;100.00
38718;BME280;24468;52.128;9.278;2023-04-26T05:16:14;100886.88;;;3.46;100.00
38718;BME280;24468;52.128;9.278;2023-04-26T05:18:39;100894.00;;;3.43;100.00
38718;BME280;24468;52.128;9.278;2023-04-26T05:21:05;100892.72;;;3.81;100.00
38718;BME280;24468;52.128;9.278;2023-04-26T05:23:31;100888.09;;;3.96;100.00
38718;BME280;24468;52.128;9.278;2023-04-26T05:26:03;100888.91;;;4.03;100.00
38718;BME280;24468;52.128;9.278;2023-04-26T05:28:32;100889.88;;;3.96;100.00
38718;BME280;24468;52.128;9.278;2023-04-26T05:30:59;100893.63;;;3.79;100.00
38718;BME280;24468;52.128;9.278;2023-04-26T05:33:26;100897.81;;;4.04;100.00
38718;BME280;24468;52.128;9.278;2023-04-26T05:35:52;100890.41;;;4.24;100.00
38718;BME280;24468;52.128;9.278;2023-04-26T05:38:19;100891.84;;;4.50;100.00
38718;BME280;24468;52.128;9.278;2023-04-26T05:40:46;100885.28;;;4.74;100.00
38718;BME280;24468;52.128;9.278;2023-04-26T05:43:13;100884.41;;;4.72;100.00
38718;BME280;24468;52.128;9.278;2023-04-26T05:45:38;100890.72;;;4.69;100.00
38718;BME280;24468;52.128;9.278;2023-04-26T05:48:04;100904.53;;;4.96;100.00
38718;BME280;24468;52.128;9.278;2023-04-26T05:50:30;100892.75;;;5.09;100.00
38718;BME280;24468;52.128;9.278;2023-04-26T05:52:55;100899.84;;;5.10;100.00
38718;BME280;24468;52.128;9.278;2023-04-26T05:55:21;100904.31;;;5.09;100.00
38718;BME280;24468;52.128;9.278;2023-04-26T05:57:47;100899.22;;;5.48;100.00
38718;BME280;24468;52.128;9.278;2023-04-26T06:00:13;100898.69;;;5.77;100.00
38718;BME280;24468;52.128;9.278;2023-04-26T06:02:40;100900.78;;;6.08;100.00
38718;BME280;24468;52.128;9.278;2023-04-26T06:05:06;100894.75;;;5.98;100.00
38718;BME280;24468;52.128;9.278;2023-04-26T06:07:32;100903.59;;;6.02;100.00
38718;BME280;24468;52.128;9.278;2023-04-26T06:10:00;100896.69;;;5.89;100.00
38718;BME280;24468;52.128;9.278;2023-04-26T06:12:26;100895.72;;;5.94;100.00
38718;BME280;24468;52.128;9.278;2023-04-26T06:14:52;100897.09;;;6.15;100.00
38718;BME280;24468;52.128;9.278;2023-04-26T06:17:18;100906.63;;;5.82;100.00
38718;BME280;24468;52.128;9.278;2023-04-26T06:19:43;100899.56;;;6.24;100.00
38718;BME280;24468;52.128;9.278;2023-04-26T06:22:09;100906.25;;;6.04;100.00
38718;BME280;24468;52.128;9.278;2023-04-26T06:24:34;100899.28;;;5.92;100.00
38718;BME280;24468;52.128;9.278;2023-04-26T06:27:00;100896.50;;;6.01;100.00
38718;BME280;24468;52.128;9.278;2023-04-26T06:29:25;100909.31;;;5.80;100.00
38718;BME280;24468;52.128;9.278;2023-04-26T06:31:51;100904.03;;;5.77;100.00
38718;BME280;24468;52.128;9.278;2023-04-26T06:34:16;100906.06;;;6.11;100.00
38718;BME280;24468;52.128;9.278;2023-04-26T06:36:42;100903.69;;;6.41;100.00
38718;BME280;24468;52.128;9.278;2023-04-26T06:39:07;100909.44;;;6.64;100.00
38718;BME280;24468;52.128;9.278;2023-04-26T06:41:33;100913.91;;;6.22;100.00
38718;BME280;24468;52.128;9.278;2023-04-26T06:43:58;100911.00;;;6.33;100.00
38718;BME280;24468;52.128;9.278;2023-04-26T06:46:24;100907.91;;;6.53;100.00
38718;BME280;24468;52.128;9.278;2023-04-26T06:48:53;100915.13;;;6.89;100.00
38718;BME280;24468;52.128;9.278;2023-04-26T06:51:19;100916.28;;;6.78;100.00
38718;BME280;24468;52.128;9.278;2023-04-26T06:53:45;100911.78;;;6.39;100.00
38718;BME280;24468;52.128;9.278;2023-04-26T06:56:10;100923.59;;;6.29;100.00
38718;BME280;24468;52.128;9.278;2023-04-26T06:58:36;100919.81;;;6.39;100.00
38718;BME280;24468;52.128;9.278;2023-04-26T07:01:01;100930.34;;;6.87;100.00
38718;BME280;24468;52.128;9.278;2023-04-26T07:03:27;100920.00;;;6.72;100.00
38718;BME280;24468;52.128;9.278;2023-04-26T07:05:54;100922.13;;;6.56;100.00
38718;BME280;24468;52.128;9.278;2023-04-26T07:08:20;100918.66;;;6.92;100.00
38718;BME280;24468;52.128;9.278;2023-04-26T07:10:46;100929.78;;;6.75;100.00
38718;BME280;24468;52.128;9.278;2023-04-26T07:13:11;100920.75;;;7.16;100.00
38718;BME280;24468;52.128;9.278;2023-04-26T07:15:37;100923.09;;;6.91;100.00
38718;BME280;24468;52.128;9.278;2023-04-26T07:18:02;100924.13;;;7.24;100.00
38718;BME280;24468;52.128;9.278;2023-04-26T07:20:28;100927.19;;;6.68;100.00
38718;BME280;24468;52.128;9.278;2023-04-26T07:22:54;100939.63;;;7.11;100.00
38718;BME280;24468;52.128;9.278;2023-04-26T07:25:19;100928.72;;;7.19;100.00
38718;BME280;24468;52.128;9.278;2023-04-26T07:27:45;100929.19;;;7.37;100.00
38718;BME280;24468;52.128;9.278;2023-04-26T07:30:10;100924.25;;;7.88;100.00
38718;BME280;24468;52.128;9.278;2023-04-26T07:32:36;100924.56;;;7.43;100.00
38718;BME280;24468;52.128;9.278;2023-04-26T07:35:05;100932.19;;;7.58;100.00
38718;BME280;24468;52.128;9.278;2023-04-26T07:37:40;100917.56;;;8.03;100.00
38718;BME280;24468;52.128;9.278;2023-04-26T07:40:06;100920.38;;;8.62;100.00
38718;BME280;24468;52.128;9.278;2023-04-26T07:42:34;100923.59;;;8.13;100.00
38718;BME280;24468;52.128;9.278;2023-04-26T07:45:00;100916.09;;;8.55;100.00
38718;BME280;24468;52.128;9.278;2023-04-26T07:47:25;100929.22;;;8.04;100.00
38718;BME280;24468;52.128;9.278;2023-04-26T07:49:54;100941.97;;;7.63;100.00
38718;BME280;24468;52.128;9.278;2023-04-26T07:52:19;100909.09;;;7.86;100.00
38718;BME280;24468;52.128;9.278;2023-04-26T07:54:45;100907.44;;;8.13;100.00
38718;BME280;24468;52.128;9.278;2023-04-26T07:57:11;100911.06;;;8.12;100.00
38718;BME280;24468;52.128;9.278;2023-04-26T07:59:36;100917.59;;;8.65;100.00
38718;BME280;24468;52.128;9.278;2023-04-26T08:02:02;100911.41;;;8.31;100.00
38718;BME280;24468;52.128;9.278;2023-04-26T08:04:32;100910.81;;;8.21;100.00
38718;BME280;24468;52.128;9.278;2023-04-26T08:06:59;100904.66;;;8.17;100.00
38718;BME280;24468;52.128;9.278;2023-04-26T08:09:27;100902.75;;;8.21;100.00
38718;BME280;24468;52.128;9.278;2023-04-26T08:11:53;100914.81;;;8.37;98.32
38718;BME280;24468;52.128;9.278;2023-04-26T08:14:18;100904.84;;;8.72;96.74
38718;BME280;24468;52.128;9.278;2023-04-26T08:16:44;100907.91;;;8.58;93.23
38718;BME280;24468;52.128;9.278;2023-04-26T08:19:10;100913.78;;;9.01;92.43
38718;BME280;24468;52.128;9.278;2023-04-26T08:21:35;100913.03;;;8.67;84.86
38718;BME280;24468;52.128;9.278;2023-04-26T08:24:01;100910.34;;;9.24;86.72
38718;BME280;24468;52.128;9.278;2023-04-26T08:26:26;100899.22;;;9.61;86.99
38718;BME280;24468;52.128;9.278;2023-04-26T08:28:52;100911.25;;;9.24;86.21
38718;BME280;24468;52.128;9.278;2023-04-26T08:31:17;100915.94;;;8.89;86.56
38718;BME280;24468;52.128;9.278;2023-04-26T08:33:43;100908.34;;;9.30;82.64
38718;BME280;24468;52.128;9.278;2023-04-26T08:36:08;100902.75;;;9.63;79.03
38718;BME280;24468;52.128;9.278;2023-04-26T08:38:34;100896.28;;;9.42;84.11
38718;BME280;24468;52.128;9.278;2023-04-26T08:41:01;100913.00;;;9.52;80.57
38718;BME280;24468;52.128;9.278;2023-04-26T08:43:29;100900.88;;;9.39;80.20
38718;BME280;24468;52.128;9.278;2023-04-26T08:45:54;100891.06;;;10.38;77.76
38718;BME280;24468;52.128;9.278;2023-04-26T08:48:20;100905.53;;;9.33;82.18
38718;BME280;24468;52.128;9.278;2023-04-26T08:50:47;100903.09;;;9.79;87.09
38718;BME280;24468;52.128;9.278;2023-04-26T08:53:14;100914.91;;;8.94;79.36
38718;BME280;24468;52.128;9.278;2023-04-26T08:55:50;100911.03;;;8.74;81.41
38718;BME280;24468;52.128;9.278;2023-04-26T08:58:19;100904.41;;;9.41;79.01
38718;BME280;24468;52.128;9.278;2023-04-26T09:00:46;100894.53;;;9.41;76.27
38718;BME280;24468;52.128;9.278;2023-04-26T09:03:12;100901.72;;;9.41;80.09
38718;BME280;24468;52.128;9.278;2023-04-26T09:05:41;100907.78;;;8.93;81.81
38718;BME280;24468;52.128;9.278;2023-04-26T09:08:15;100916.63;;;8.66;82.86
38718;BME280;24468;52.128;9.278;2023-04-26T09:10:45;100915.09;;;8.87;82.54
38718;BME280;24468;52.128;9.278;2023-04-26T09:13:10;100906.06;;;8.90;81.73
38718;BME280;24468;52.128;9.278;2023-04-26T09:15:36;100896.41;;;9.38;79.53
38718;BME280;24468;52.128;9.278;2023-04-26T09:20:44;100904.47;;;9.39;78.65
38718;BME280;24468;52.128;9.278;2023-04-26T09:23:09;100896.84;;;9.25;85.28
38718;BME280;24468;52.128;9.278;2023-04-26T09:25:36;100902.94;;;9.57;83.65
38718;BME280;24468;52.128;9.278;2023-04-26T09:28:03;100898.38;;;9.59;76.18
38718;BME280;24468;52.128;9.278;2023-04-26T09:30:42;100908.50;;;9.26;72.67
38718;BME280;24468;52.128;9.278;2023-04-26T09:33:08;100899.53;;;9.52;72.82
38718;BME280;24468;52.128;9.278;2023-04-26T09:35:37;100912.75;;;9.33;74.57
38718;BME280;24468;52.128;9.278;2023-04-26T09:38:16;100913.47;;;9.38;73.43
38718;BME280;24468;52.128;9.278;2023-04-26T09:40:48;100905.88;;;9.24;72.54
38718;BME280;24468;52.128;9.278;2023-04-26T09:43:19;100912.47;;;9.14;73.40
38718;BME280;24468;52.128;9.278;2023-04-26T09:45:53;100908.34;;;9.30;69.94
38718;BME280;24468;52.128;9.278;2023-04-26T09:48:24;100906.38;;;9.35;72.92
38718;BME280;24468;52.128;9.278;2023-04-26T09:50:53;100907.06;;;9.67;70.95
38718;BME280;24468;52.128;9.278;2023-04-26T09:53:27;100921.06;;;9.25;63.71
38718;BME280;24468;52.128;9.278;2023-04-26T09:55:54;100915.84;;;9.74;60.86
38718;BME280;24468;52.128;9.278;2023-04-26T09:58:20;100908.97;;;9.90;62.54
38718;BME280;24468;52.128;9.278;2023-04-26T10:00:49;100913.06;;;10.00;62.78
38718;BME280;24468;52.128;9.278;2023-04-26T10:03:18;100911.44;;;10.21;62.94
38718;BME280;24468;52.128;9.278;2023-04-26T10:05:45;100908.69;;;9.98;64.60
38718;BME280;24468;52.128;9.278;2023-04-26T10:08:11;100912.06;;;10.30;65.06
38718;BME280;24468;52.128;9.278;2023-04-26T10:10:37;100923.44;;;10.38;63.29
38718;BME280;24468;52.128;9.278;2023-04-26T10:13:05;100925.56;;;10.03;66.35
38718;BME280;24468;52.128;9.278;2023-04-26T10:15:31;100912.94;;;9.53;68.99
38718;BME280;24468;52.128;9.278;2023-04-26T10:17:57;100918.31;;;10.05;67.58
38718;BME280;24468;52.128;9.278;2023-04-26T10:20:25;100910.31;;;10.29;64.41
38718;BME280;24468;52.128;9.278;2023-04-26T10:22:55;100911.00;;;10.57;62.81
38718;BME280;24468;52.128;9.278;2023-04-26T10:25:39;100919.91;;;10.36;59.53
38718;BME280;24468;52.128;9.278;2023-04-26T10:28:06;100917.13;;;9.62;59.71
38718;BME280;24468;52.128;9.278;2023-04-26T10:30:32;100916.09;;;9.66;57.57
38718;BME280;24468;52.128;9.278;2023-04-26T10:35:27;100903.34;;;10.21;56.15
38718;BME280;24468;52.128;9.278;2023-04-26T10:40:34;100902.25;;;10.27;58.48
38718;BME280;24468;52.128;9.278;2023-04-26T10:45:37;100906.31;;;9.64;60.64
38718;BME280;24468;52.128;9.278;2023-04-26T10:48:23;100908.72;;;8.92;64.38
38718;BME280;24468;52.128;9.278;2023-04-26T10:58:48;100900.72;;;9.43;70.15
38718;BME280;24468;52.128;9.278;2023-04-26T11:03:42;100898.09;;;10.17;65.60
38718;BME280;24468;52.128;9.278;2023-04-26T11:06:09;100893.69;;;9.39;64.76
38718;BME280;24468;52.128;9.278;2023-04-26T11:08:39;100891.72;;;9.96;61.68
38718;BME280;24468;52.128;9.278;2023-04-26T11:11:10;100888.78;;;9.77;61.49
38718;BME280;24468;52.128;9.278;2023-04-26T11:13:38;100884.03;;;10.09;61.26
38718;BME280;24468;52.128;9.278;2023-04-26T11:16:07;100875.13;;;10.07;57.65
38718;BME280;24468;52.128;9.278;2023-04-26T11:18:35;100877.75;;;11.45;54.92
38718;BME280;24468;52.128;9.278;2023-04-26T11:21:01;100866.63;;;11.52;51.94
38718;BME280;24468;52.128;9.278;2023-04-26T11:23:29;100866.47;;;11.35;51.61
38718;BME280;24468;52.128;9.278;2023-04-26T11:26:06;100865.66;;;11.33;50.46
38718;BME280;24468;52.128;9.278;2023-04-26T11:28:34;100876.50;;;10.18;54.02
38718;BME280;24468;52.128;9.278;2023-04-26T11:31:02;100879.88;;;9.75;55.73
38718;BME280;24468;52.128;9.278;2023-04-26T11:33:28;100875.97;;;9.58;56.93
38718;BME280;24468;52.128;9.278;2023-04-26T11:35:57;100871.66;;;9.53;57.49
38718;BME280;24468;52.128;9.278;2023-04-26T11:38:27;100875.41;;;9.49;57.07
38718;BME280;24468;52.128;9.278;2023-04-26T11:41:00;100887.72;;;9.03;56.79
38718;BME280;24468;52.128;9.278;2023-04-26T11:43:39;100890.00;;;8.87;58.19
38718;BME280;24468;52.128;9.278;2023-04-26T11:46:07;100900.53;;;8.95;58.87
38718;BME280;24468;52.128;9.278;2023-04-26T11:48:35;100896.16;;;8.90;61.73
38718;BME280;24468;52.128;9.278;2023-04-26T11:51:03;100894.63;;;9.38;63.75
38718;BME280;24468;52.128;9.278;2023-04-26T11:53:42;100883.50;;;9.49;62.79
38718;BME280;24468;52.128;9.278;2023-04-26T11:56:19;100890.63;;;9.50;60.52
38718;BME280;24468;52.128;9.278;2023-04-26T11:58:50;100891.19;;;9.60;60.77
38718;BME280;24468;52.128;9.278;2023-04-26T12:03:53;100891.34;;;9.28;60.60
38718;BME280;24468;52.128;9.278;2023-04-26T12:06:19;100895.94;;;9.51;61.93
38718;BME280;24468;52.128;9.278;2023-04-26T12:08:50;100908.16;;;9.62;62.23
38718;BME280;24468;52.128;9.278;2023-04-26T12:11:17;100901.09;;;9.84;61.27
38718;BME280;24468;52.128;9.278;2023-04-26T12:13:44;100907.19;;;9.89;61.40
38718;BME280;24468;52.128;9.278;2023-04-26T12:16:12;100904.69;;;9.85;61.10
38718;BME280;24468;52.128;9.278;2023-04-26T12:18:38;100903.03;;;9.80;59.26
38718;BME280;24468;52.128;9.278;2023-04-26T12:21:03;100914.97;;;9.47;59.63
38718;BME280;24468;52.128;9.278;2023-04-26T12:23:38;100908.13;;;10.13;60.00
38718;BME280;24468;52.128;9.278;2023-04-26T12:26:04;100903.44;;;10.43;59.27
38718;BME280;24468;52.128;9.278;2023-04-26T12:28:30;100909.72;;;10.67;57.75
38718;BME280;24468;52.128;9.278;2023-04-26T12:30:56;100905.38;;;10.40;59.01
38718;BME280;24468;52.128;9.278;2023-04-26T12:33:21;100900.00;;;10.15;57.93
38718;BME280;24468;52.128;9.278;2023-04-26T12:35:49;100896.22;;;10.44;57.90
38718;BME280;24468;52.128;9.278;2023-04-26T12:38:15;100895.78;;;9.83;58.84
38718;BME280;24468;52.128;9.278;2023-04-26T12:40:42;100901.69;;;10.42;57.81
38718;BME280;24468;52.128;9.278;2023-04-26T12:43:07;100902.50;;;10.19;56.95
38718;BME280;24468;52.128;9.278;2023-04-26T12:45:34;100899.50;;;10.76;55.40
38718;BME280;24468;52.128;9.278;2023-04-26T12:47:59;100899.44;;;10.05;56.03
38718;BME280;24468;52.128;9.278;2023-04-26T12:50:25;100907.75;;;9.99;55.81
38718;BME280;24468;52.128;9.278;2023-04-26T12:52:51;100906.28;;;9.90;55.99
38718;BME280;24468;52.128;9.278;2023-04-26T12:55:18;100894.41;;;10.44;58.06
38718;BME280;24468;52.128;9.278;2023-04-26T12:57:44;100896.28;;;10.66;58.04
38718;BME280;24468;52.128;9.278;2023-04-26T13:00:13;100896.88;;;10.96;56.55
38718;BME280;24468;52.128;9.278;2023-04-26T13:02:40;100888.47;;;10.58;59.29
38718;BME280;24468;52.128;9.278;2023-04-26T13:05:06;100897.78;;;10.26;60.23
38718;BME280;24468;52.128;9.278;2023-04-26T13:07:34;100896.69;;;10.55;56.59
38718;BME280;24468;52.128;9.278;2023-04-26T13:10:00;100894.03;;;10.77;55.40
38718;BME280;24468;52.128;9.278;2023-04-26T13:12:27;100894.63;;;10.38;54.78
38718;BME280;24468;52.128;9.278;2023-04-26T13:14:53;100894.66;;;10.62;56.20